Time;durP1;ratioP1;P1;durP2;ratioP2;P2;SDS_P1;SDS_P2;PMS_P1;PMS_P2;Temp;Humidity;BMP_temperature;BMP_pressure;BME280_temperature;BME280_humidity;BME280_pressure;Samples;Min_cycle;Max_cycle;Signal;HPM_P1;HPM_P2
2022/06/14 00:00:53;;;;;;;4.72;2.05;;;15.10;61.00;;;;;;5093527;28;20519;-71
2022/06/14 00:02:20;;;;;;;4.88;1.75;;;15.10;60.80;;;;;;5077930;28;20029;-62
2022/06/14 00:04:46;;;;;;;5.05;1.70;;;15.10;61.20;;;;;;5078149;28;20376;-64
2022/06/14 00:07:12;;;;;;;4.72;1.60;;;15.10;61.60;;;;;;5078090;28;20031;-62
2022/06/14 00:09:38;;;;;;;3.58;1.67;;;15.10;61.80;;;;;;5078131;28;20024;-62
2022/06/14 00:12:04;;;;;;;4.30;1.80;;;15.10;62.20;;;;;;5078334;28;20021;-62
2022/06/14 00:14:30;;;;;;;6.88;2.10;;;15.00;61.00;;;;;;5078031;28;20025;-62
2022/06/14 00:16:55;;;;;;;3.53;1.73;;;15.00;62.30;;;;;;5078241;28;20024;-62
2022/06/14 00:19:21;;;;;;;5.95;1.88;;;15.00;61.10;;;;;;5077998;28;20035;-63
2022/06/14 00:21:47;;;;;;;4.07;1.83;;;15.00;61.90;;;;;;5078295;28;20035;-62
2022/06/14 00:24:13;;;;;;;4.85;1.60;;;14.90;62.70;;;;;;5078126;28;20030;-62
2022/06/14 00:26:38;;;;;;;6.97;2.10;;;15.00;62.80;;;;;;5077949;28;20020;-62
2022/06/14 00:29:04;;;;;;;6.57;1.83;;;14.90;61.60;;;;;;5082118;28;20054;-62
2022/06/14 00:31:31;;;;;;;6.22;2.03;;;14.90;63.00;;;;;;5098071;28;20028;-62
2022/06/14 00:33:57;;;;;;;5.07;1.65;;;14.80;63.40;;;;;;5097932;28;20058;-62
2022/06/14 00:36:30;;;;;;;5.47;1.80;;;14.80;62.90;;;;;;5098037;28;20024;-62
2022/06/14 00:38:58;;;;;;;4.22;1.83;;;14.80;64.10;;;;;;5097959;28;20487;-62
2022/06/14 00:41:38;;;;;;;5.05;2.40;;;14.80;64.20;;;;;;5097971;28;20024;-62
2022/06/14 00:44:07;;;;;;;7.93;1.80;;;14.80;64.10;;;;;;5096848;28;20020;-62
2022/06/14 00:46:51;;;;;;;5.18;2.03;;;14.80;64.00;;;;;;5097833;28;20023;-62
2022/06/14 00:49:24;;;;;;;4.22;2.35;;;14.70;62.70;;;;;;5097842;28;20824;-62
2022/06/14 00:52:02;;;;;;;3.78;2.15;;;14.70;63.40;;;;;;5098258;28;20119;-63
2022/06/14 00:54:37;;;;;;;5.38;2.00;;;14.70;63.60;;;;;;5098394;28;20495;-62
2022/06/14 00:57:11;;;;;;;5.97;2.20;;;14.60;64.80;;;;;;5097838;28;20052;-62
2022/06/14 01:00:03;;;;;;;4.78;2.30;;;14.60;64.20;;;;;;5083643;28;20044;-62
2022/06/14 01:02:35;;;;;;;4.75;1.60;;;14.60;63.60;;;;;;5076104;28;20040;-62
2022/06/14 01:05:05;;;;;;;7.30;2.30;;;14.60;65.40;;;;;;5077226;28;20025;-62
2022/06/14 01:07:41;;;;;;;4.90;1.90;;;14.50;64.40;;;;;;5077327;28;20024;-62
2022/06/14 01:10:09;;;;;;;5.72;1.73;;;14.50;64.70;;;;;;5079473;28;20029;-62
2022/06/14 01:12:38;;;;;;;7.80;1.80;;;14.50;66.30;;;;;;5081701;28;20477;-62
2022/06/14 01:15:21;;;;;;;4.20;1.95;;;14.40;65.40;;;;;;5100713;28;20031;-65
2022/06/14 01:17:58;;;;;;;7.63;2.25;;;14.40;62.70;;;;;;5101938;28;20016;-62
2022/06/14 01:20:25;;;;;;;5.38;1.80;;;14.40;64.50;;;;;;5101810;28;20081;-64
2022/06/14 01:22:53;;;;;;;3.05;1.92;;;14.40;65.00;;;;;;5101507;28;20016;-62
2022/06/14 01:25:19;;;;;;;6.93;2.25;;;14.40;65.30;;;;;;5101652;28;20031;-62
2022/06/14 01:27:45;;;;;;;6.70;2.10;;;14.40;64.10;;;;;;5100022;28;20012;-62
2022/06/14 01:30:15;;;;;;;4.60;1.80;;;14.40;64.20;;;;;;5101471;28;20031;-62
2022/06/14 01:33:08;;;;;;;4.28;1.90;;;14.40;63.90;;;;;;5101620;28;20020;-63
2022/06/14 01:35:37;;;;;;;5.00;1.90;;;14.40;64.70;;;;;;5100529;28;20384;-66
2022/06/14 01:38:07;;;;;;;7.53;1.92;;;14.40;65.30;;;;;;5100742;28;20028;-63
2022/06/14 01:40:54;;;;;;;5.18;1.80;;;14.30;66.00;;;;;;5101261;28;20036;-62
2022/06/14 01:43:45;;;;;;;3.58;1.80;;;14.30;64.10;;;;;;5101196;28;20441;-62
2022/06/14 01:46:20;;;;;;;5.38;2.15;;;14.30;65.20;;;;;;5101379;28;20020;-62
2022/06/14 01:48:49;;;;;;;6.75;2.17;;;14.30;64.60;;;;;;5101406;28;20033;-62
2022/06/14 01:51:52;;;;;;;6.97;2.30;;;14.30;65.40;;;;;;5097666;28;20568;-62
2022/06/14 01:54:28;;;;;;;7.25;1.98;;;14.20;65.40;;;;;;5080797;28;20357;-62
2022/06/14 01:57:14;;;;;;;5.30;1.85;;;14.20;67.30;;;;;;5092237;28;20053;-62
2022/06/14 02:00:01;;;;;;;6.47;2.40;;;14.20;65.70;;;;;;5096414;28;20476;-62
2022/06/14 02:02:38;;;;;;;6.18;1.98;;;14.20;65.90;;;;;;5100080;28;20036;-62
2022/06/14 02:05:08;;;;;;;5.88;2.05;;;14.10;66.30;;;;;;5101036;28;20020;-62
2022/06/14 02:07:46;;;;;;;4.88;1.92;;;14.10;65.90;;;;;;5100610;28;20020;-62
2022/06/14 02:10:24;;;;;;;4.75;2.08;;;14.10;68.10;;;;;;5100931;28;20024;-62
2022/06/14 02:13:14;;;;;;;6.57;2.40;;;14.10;68.60;;;;;;5100504;28;20083;-62
2022/06/14 02:15:56;;;;;;;7.35;2.10;;;14.10;68.40;;;;;;5080881;28;20037;-63
2022/06/14 02:18:27;;;;;;;3.53;1.60;;;14.10;66.30;;;;;;5080288;28;20082;-62
2022/06/14 02:21:17;;;;;;;6.13;2.03;;;14.10;68.20;;;;;;5079772;28;20024;-62
2022/06/14 02:23:54;;;;;;;7.00;2.53;;;14.10;69.50;;;;;;5080322;28;20031;-62
2022/06/14 02:26:26;;;;;;;5.30;2.60;;;14.10;68.30;;;;;;5080404;28;20056;-62
2022/06/14 02:29:25;;;;;;;7.72;2.13;;;14.10;68.70;;;;;;5085992;28;20023;-63
2022/06/14 02:31:58;;;;;;;5.68;2.28;;;14.00;69.80;;;;;;5092674;28;20028;-62
2022/06/14 02:34:42;;;;;;;5.50;2.20;;;14.00;69.10;;;;;;5100349;28;20157;-62
2022/06/14 02:37:46;;;;;;;4.00;1.83;;;14.00;67.40;;;;;;5100041;28;20032;-62
2022/06/14 02:40:43;;;;;;;3.80;1.90;;;14.00;66.70;;;;;;5077856;28;20059;-62
2022/06/14 02:43:27;;;;;;;4.45;2.28;;;14.00;67.00;;;;;;5077286;28;20029;-62
2022/06/14 02:46:05;;;;;;;5.10;2.22;;;14.00;68.10;;;;;;5085914;28;20037;-62
2022/06/14 02:48:48;;;;;;;5.00;2.10;;;14.00;67.50;;;;;;5079463;28;20021;-62
2022/06/14 02:51:35;;;;;;;4.68;2.28;;;13.90;69.20;;;;;;5079758;28;20056;-62
2022/06/14 02:54:20;;;;;;;7.18;2.00;;;13.90;70.60;;;;;;5079647;28;20020;-62
2022/06/14 02:56:56;;;;;;;6.13;2.45;;;13.90;69.40;;;;;;5079354;28;20040;-63
2022/06/14 02:59:34;;;;;;;4.55;2.17;;;13.90;67.50;;;;;;5099939;28;20053;-62
2022/06/14 03:02:07;;;;;;;4.63;1.92;;;13.90;66.70;;;;;;5099892;28;20115;-62
2022/06/14 03:05:07;;;;;;;6.90;2.25;;;13.90;69.90;;;;;;5099972;28;20035;-62
2022/06/14 03:07:44;;;;;;;5.05;2.17;;;13.90;67.40;;;;;;5088616;28;20063;-62
2022/06/14 03:10:10;;;;;;;3.40;1.80;;;13.90;69.90;;;;;;5099603;28;20016;-63
2022/06/14 03:13:02;;;;;;;6.78;2.35;;;13.80;71.60;;;;;;5080715;28;20032;-62
2022/06/14 03:15:35;;;;;;;4.75;2.30;;;13.80;69.80;;;;;;5078301;28;20050;-62
2022/06/14 03:18:13;;;;;;;3.10;2.10;;;13.80;69.00;;;;;;5086647;28;20024;-65
2022/06/14 03:20:57;;;;;;;4.63;1.90;;;13.80;70.40;;;;;;5099093;28;20035;-62
2022/06/14 03:23:32;;;;;;;5.88;2.13;;;13.80;69.00;;;;;;5099433;28;20054;-62
2022/06/14 03:26:06;;;;;;;5.60;2.38;;;13.70;68.00;;;;;;5098949;28;20028;-63
2022/06/14 03:28:41;;;;;;;2.88;1.80;;;13.80;70.80;;;;;;5099453;28;20046;-62
2022/06/14 03:31:34;;;;;;;4.57;2.10;;;13.80;71.40;;;;;;5098945;28;20438;-62
2022/06/14 03:34:02;;;;;;;6.85;2.20;;;13.70;70.60;;;;;;5097822;28;20032;-62
2022/06/14 03:36:28;;;;;;;5.32;2.30;;;13.70;69.10;;;;;;5093945;28;20020;-62
2022/06/14 03:39:05;;;;;;;4.97;2.20;;;13.80;70.60;;;;;;5078938;28;20020;-62
2022/06/14 03:41:34;;;;;;;7.60;2.50;;;13.70;71.10;;;;;;5078896;28;20032;-62
2022/06/14 03:44:01;;;;;;;7.63;2.50;;;13.70;68.50;;;;;;5078642;28;20021;-62
2022/06/14 03:46:41;;;;;;;6.53;2.13;;;13.70;72.00;;;;;;5078653;28;20024;-63
2022/06/14 03:49:21;;;;;;;4.97;2.45;;;13.60;70.90;;;;;;5096947;28;20069;-62
2022/06/14 03:52:00;;;;;;;4.82;2.03;;;13.70;69.90;;;;;;5098996;28;20056;-63
2022/06/14 03:54:58;;;;;;;5.50;2.20;;;13.60;70.80;;;;;;5098745;28;20079;-62
2022/06/14 03:57:32;;;;;;;5.22;2.35;;;13.70;70.70;;;;;;5097924;28;20048;-62
2022/06/14 04:00:19;;;;;;;4.68;2.15;;;13.60;70.20;;;;;;5098660;28;20036;-62
2022/06/14 04:03:15;;;;;;;6.28;2.25;;;13.70;69.60;;;;;;5098440;28;20063;-62
2022/06/14 04:06:16;;;;;;;5.90;2.58;;;13.60;69.90;;;;;;5099016;28;20016;-62
2022/06/14 04:09:09;;;;;;;6.53;2.22;;;13.60;71.90;;;;;;5097393;28;20057;-69
2022/06/14 04:12:17;;;;;;;7.18;2.17;;;13.60;68.90;;;;;;5098705;28;20059;-62
2022/06/14 04:14:50;;;;;;;7.13;2.20;;;13.60;72.10;;;;;;5074359;28;20514;-62
2022/06/14 04:17:35;;;;;;;5.90;2.30;;;13.60;70.90;;;;;;5098389;28;20032;-62
2022/06/14 04:20:24;;;;;;;5.43;2.33;;;13.70;68.80;;;;;;5098480;28;20024;-62
2022/06/14 04:23:21;;;;;;;4.97;1.85;;;13.70;69.10;;;;;;5097511;28;20106;-65
2022/06/14 04:25:57;;;;;;;5.78;2.05;;;13.70;72.70;;;;;;5098582;28;20031;-62
2022/06/14 04:28:44;;;;;;;6.55;2.10;;;13.60;73.00;;;;;;5097427;28;20020;-62
2022/06/14 04:31:25;;;;;;;6.93;2.47;;;13.70;72.90;;;;;;5098130;28;20103;-62
2022/06/14 04:34:04;;;;;;;4.75;1.90;;;13.70;69.80;;;;;;5098233;28;20020;-62
2022/06/14 04:36:42;;;;;;;4.70;2.00;;;13.70;72.90;;;;;;5098269;28;20099;-62
2022/06/14 04:39:12;;;;;;;6.32;2.25;;;13.70;70.60;;;;;;5078592;28;20515;-62
2022/06/14 04:41:51;;;;;;;4.97;2.20;;;13.70;70.00;;;;;;5077619;28;20115;-62
2022/06/14 04:44:31;;;;;;;4.45;2.05;;;13.70;73.10;;;;;;5077741;28;20024;-63
2022/06/14 04:47:26;;;;;;;6.72;2.17;;;13.70;73.20;;;;;;5077760;28;20510;-62
2022/06/14 04:50:05;;;;;;;4.50;2.13;;;13.80;72.50;;;;;;5076615;28;20082;-62
2022/06/14 04:52:39;;;;;;;5.55;2.05;;;13.70;73.50;;;;;;5085208;28;20042;-62
2022/06/14 04:55:10;;;;;;;8.13;2.33;;;13.80;72.10;;;;;;5097275;28;20039;-62
2022/06/14 04:57:43;;;;;;;5.68;2.40;;;13.80;69.60;;;;;;5097146;28;20043;-62
2022/06/14 05:00:16;;;;;;;5.13;2.13;;;13.80;71.80;;;;;;5097144;28;20032;-62
2022/06/14 05:02:51;;;;;;;5.55;2.42;;;13.90;73.60;;;;;;5097461;28;20028;-62
2022/06/14 05:05:17;;;;;;;4.60;2.05;;;13.90;70.20;;;;;;5097781;28;20030;-64
2022/06/14 05:07:48;;;;;;;5.10;2.10;;;13.90;72.90;;;;;;5096655;28;20436;-63
2022/06/14 05:10:19;;;;;;;5.60;2.08;;;13.90;73.30;;;;;;5097802;28;20021;-62
2022/06/14 05:13:32;;;;;;;8.85;2.55;;;14.00;73.20;;;;;;5097876;28;20425;-63
2022/06/14 05:16:07;;;;;;;4.93;2.17;;;14.00;72.20;;;;;;5097663;28;20028;-62
2022/06/14 05:18:39;;;;;;;5.70;2.40;;;14.00;72.70;;;;;;5097330;28;20029;-62
2022/06/14 05:21:17;;;;;;;7.65;2.30;;;14.00;73.40;;;;;;5096526;28;20466;-62
2022/06/14 05:23:49;;;;;;;6.60;2.30;;;14.10;72.00;;;;;;5092396;28;20032;-62
2022/06/14 05:26:29;;;;;;;4.35;2.25;;;14.10;72.70;;;;;;5097481;28;20027;-63
2022/06/14 05:29:19;;;;;;;4.13;2.10;;;14.10;71.90;;;;;;5097314;28;20024;-63
2022/06/14 05:32:06;;;;;;;6.68;2.25;;;14.10;71.70;;;;;;5097704;28;20032;-62
2022/06/14 05:35:03;;;;;;;6.65;2.67;;;14.20;71.60;;;;;;5097313;28;20117;-62
2022/06/14 05:37:42;;;;;;;4.57;1.95;;;14.20;72.90;;;;;;5097435;28;20107;-62
2022/06/14 05:40:18;;;;;;;7.18;2.67;;;14.20;73.60;;;;;;5097599;28;20074;-62
2022/06/14 05:43:06;;;;;;;4.45;1.80;;;14.20;71.50;;;;;;5097290;28;20028;-63
2022/06/14 05:45:40;;;;;;;4.47;2.10;;;14.30;70.80;;;;;;5097065;28;20068;-62
2022/06/14 05:48:09;;;;;;;3.47;1.93;;;14.30;72.50;;;;;;5097613;28;20016;-62
2022/06/14 05:50:40;;;;;;;5.40;2.20;;;14.40;73.00;;;;;;5096109;28;20078;-62
2022/06/14 05:53:06;;;;;;;5.07;2.25;;;14.40;71.20;;;;;;5090655;28;20589;-63
2022/06/14 05:55:31;;;;;;;6.63;2.60;;;14.40;71.40;;;;;;5086474;28;20028;-62
2022/06/14 05:58:14;;;;;;;5.57;2.30;;;14.50;74.20;;;;;;5080289;28;20048;-63
2022/06/14 06:00:50;;;;;;;7.53;3.28;;;14.50;73.00;;;;;;5081124;28;20422;-62
2022/06/14 06:03:25;;;;;;;5.78;2.20;;;14.60;73.80;;;;;;5080577;28;20429;-62
2022/06/14 06:05:59;;;;;;;5.05;2.20;;;14.70;73.20;;;;;;5080500;28;20017;-63
2022/06/14 06:08:48;;;;;;;5.43;2.20;;;14.70;73.60;;;;;;5092851;28;20028;-64
2022/06/14 06:11:19;;;;;;;6.93;2.30;;;14.80;72.10;;;;;;5094330;28;20032;-62
2022/06/14 06:14:03;;;;;;;5.35;2.40;;;14.80;73.30;;;;;;5102656;28;20073;-68
2022/06/14 06:19:33;;;;;;;8.07;2.50;;;15.00;71.60;;;;;;5097436;28;20036;-62
2022/06/14 06:22:08;;;;;;;6.75;2.30;;;15.10;72.70;;;;;;5099578;28;20092;-62
2022/06/14 06:24:49;;;;;;;6.85;2.55;;;15.10;72.50;;;;;;5102740;28;20021;-62
2022/06/14 06:27:15;;;;;;;8.57;2.67;;;15.20;72.20;;;;;;5100808;28;20369;-62
2022/06/14 06:29:52;;;;;;;6.25;2.47;;;15.30;72.90;;;;;;5100412;28;20036;-62
2022/06/14 06:32:20;;;;;;;6.47;2.13;;;15.30;71.30;;;;;;5100325;28;20028;-62
2022/06/14 06:34:48;;;;;;;4.90;2.28;;;15.40;70.30;;;;;;5100298;28;20028;-63
2022/06/14 06:37:31;;;;;;;4.90;2.17;;;15.40;70.70;;;;;;5113471;28;20019;-62
2022/06/14 06:40:05;;;;;;;5.20;2.05;;;15.50;72.20;;;;;;5110841;28;20020;-62
2022/06/14 06:42:41;;;;;;;7.72;2.53;;;15.60;72.50;;;;;;5100079;28;20032;-62
2022/06/14 06:45:14;;;;;;;6.00;2.63;;;15.70;70.00;;;;;;5100382;28;20053;-62
2022/06/14 06:48:00;;;;;;;4.00;2.40;;;15.70;73.00;;;;;;5100304;28;20478;-62
2022/06/14 06:50:27;;;;;;;5.68;2.47;;;15.80;71.70;;;;;;5100071;28;20028;-62
2022/06/14 06:53:02;;;;;;;7.80;2.80;;;15.90;71.30;;;;;;5100124;28;20103;-62
2022/06/14 06:55:27;;;;;;;;;;;16.00;70.60;;;;;;5100368;28;20042;-63
2022/06/14 06:57:55;;;;;;;6.20;2.50;;;16.10;70.50;;;;;;5099596;28;19986;-62
2022/06/14 07:00:24;;;;;;;7.82;2.10;;;16.10;70.50;;;;;;5100007;28;20020;-63
2022/06/14 07:02:56;;;;;;;6.05;2.22;;;16.20;70.90;;;;;;5099912;28;20032;-63
2022/06/14 07:05:22;;;;;;;5.80;2.20;;;16.30;69.80;;;;;;5099993;28;20012;-62
2022/06/14 07:08:02;;;;;;;6.85;2.50;;;16.40;71.20;;;;;;5099302;28;20035;-63
2022/06/14 07:10:41;;;;;;;4.47;2.33;;;16.50;71.50;;;;;;5099602;28;20484;-62
2022/06/14 07:13:33;;;;;;;4.18;2.03;;;16.50;70.50;;;;;;5099628;28;20472;-63
2022/06/14 07:16:22;;;;;;;5.28;2.63;;;16.60;71.30;;;;;;5082596;28;20070;-63
2022/06/14 07:18:59;;;;;;;6.18;2.33;;;16.70;70.10;;;;;;5096773;28;20027;-63
2022/06/14 07:21:30;;;;;;;5.38;2.35;;;16.80;70.50;;;;;;5079769;28;20048;-62
2022/06/14 07:24:07;;;;;;;6.45;2.90;;;16.90;70.50;;;;;;5089566;28;20031;-63
2022/06/14 07:26:43;;;;;;;6.13;2.05;;;16.90;69.40;;;;;;5100118;28;20025;-62
2022/06/14 07:29:24;;;;;;;4.63;2.40;;;17.00;69.90;;;;;;5113110;28;20379;-63
2022/06/14 07:32:01;;;;;;;5.32;2.20;;;17.10;69.30;;;;;;5079394;28;20039;-63
2022/06/14 07:34:28;;;;;;;4.50;2.33;;;17.10;71.20;;;;;;5088276;28;20105;-63
2022/06/14 07:36:58;;;;;;;5.53;2.40;;;17.20;69.50;;;;;;5099345;28;20031;-63
2022/06/14 07:39:39;;;;;;;4.95;2.60;;;17.30;69.40;;;;;;5101039;28;20114;-63
2022/06/14 07:42:23;;;;;;;4.32;2.33;;;17.40;69.30;;;;;;5078788;28;20107;-66
2022/06/14 07:45:00;;;;;;;6.10;2.60;;;17.40;69.40;;;;;;5084425;28;20107;-62
2022/06/14 07:47:38;;;;;;;6.45;2.92;;;17.50;69.40;;;;;;5082980;28;20028;-63
2022/06/14 07:50:22;;;;;;;4.40;2.55;;;17.60;69.80;;;;;;5078316;28;20025;-63
2022/06/14 07:52:49;;;;;;;6.95;2.50;;;17.70;68.70;;;;;;5079044;28;20029;-64
2022/06/14 07:55:27;;;;;;;6.68;2.67;;;17.80;68.70;;;;;;5078573;28;20025;-67
2022/06/14 07:57:59;;;;;;;5.43;2.10;;;17.90;68.30;;;;;;5078364;28;20048;-67
2022/06/14 08:03:37;;;;;;;8.80;2.70;;;18.00;67.80;;;;;;5076825;28;20554;-66
2022/06/14 08:06:09;;;;;;;6.72;2.33;;;18.10;68.10;;;;;;5077591;28;20445;-66
2022/06/14 08:08:38;;;;;;;6.95;2.78;;;18.20;68.00;;;;;;5077707;28;20024;-66
2022/06/14 08:11:09;;;;;;;8.05;2.75;;;18.30;68.10;;;;;;5077514;28;20012;-67
2022/06/14 08:13:41;;;;;;;6.00;2.33;;;18.40;67.20;;;;;;5078067;28;20020;-67
2022/06/14 08:16:09;;;;;;;5.38;2.50;;;18.50;67.40;;;;;;5078041;28;20067;-67
2022/06/14 08:18:43;;;;;;;3.78;2.15;;;18.50;67.10;;;;;;5077325;28;20025;-69
2022/06/14 08:21:19;;;;;;;4.43;2.55;;;18.60;66.40;;;;;;5077697;28;20021;-67
2022/06/14 08:23:57;;;;;;;6.93;3.13;;;18.70;66.30;;;;;;5077440;28;20025;-68
2022/06/14 08:26:32;;;;;;;5.60;2.60;;;18.70;66.70;;;;;;5077797;28;20023;-67
2022/06/14 08:29:29;;;;;;;7.00;2.72;;;18.80;66.80;;;;;;5077715;28;20032;-67
2022/06/14 08:32:00;;;;;;;6.65;2.50;;;18.90;66.60;;;;;;5077670;28;20016;-67
2022/06/14 08:34:41;;;;;;;6.13;2.88;;;19.00;66.40;;;;;;5077761;28;20032;-67
2022/06/14 08:37:33;;;;;;;6.38;2.90;;;19.10;66.20;;;;;;5077691;28;20020;-67
2022/06/14 08:40:28;;;;;;;8.15;2.85;;;19.20;66.20;;;;;;5077813;28;20396;-67
2022/06/14 08:43:13;;;;;;;;;;;19.30;65.90;;;;;;5067134;28;20041;-67
2022/06/14 08:45:44;;;;;;;;;;;19.40;66.10;;;;;;5078375;28;19904;-67
2022/06/14 08:48:41;;;;;;;5.22;2.40;;;19.50;66.00;;;;;;5077864;28;19930;-67
2022/06/14 08:51:28;;;;;;;6.50;2.55;;;19.50;65.90;;;;;;5078511;28;20356;-67
2022/06/14 08:54:28;;;;;;;6.07;2.55;;;19.60;65.60;;;;;;5077614;28;20021;-67
2022/06/14 08:57:05;;;;;;;6.82;2.63;;;19.70;65.20;;;;;;5077485;28;20049;-67
2022/06/14 08:59:46;;;;;;;4.15;2.47;;;19.80;64.70;;;;;;5077614;28;20035;-67
2022/06/14 09:02:24;;;;;;;8.15;3.00;;;19.90;64.50;;;;;;5077713;28;20036;-67
2022/06/14 09:04:53;;;;;;;6.53;2.90;;;19.90;64.70;;;;;;5077696;28;20072;-68
2022/06/14 09:07:36;;;;;;;5.90;2.80;;;20.00;64.50;;;;;;5077763;28;20024;-67
2022/06/14 09:10:02;;;;;;;6.50;2.70;;;20.10;64.80;;;;;;5077540;28;20025;-68
2022/06/14 09:13:03;;;;;;;4.60;2.50;;;20.20;64.00;;;;;;5077258;28;20036;-67
2022/06/14 09:16:15;;;;;;;8.27;3.15;;;20.30;64.90;;;;;;5067227;28;20047;-68
2022/06/14 09:18:46;;;;;;;5.43;2.50;;;20.50;64.50;;;;;;5077340;28;20025;-67
2022/06/14 09:21:21;;;;;;;5.93;2.80;;;20.60;64.60;;;;;;5077501;28;20379;-67
2022/06/14 09:23:50;;;;;;;7.57;2.60;;;20.70;65.00;;;;;;5077162;28;20032;-67
2022/06/14 09:26:18;;;;;;;6.85;2.78;;;20.80;64.10;;;;;;5077360;28;20099;-69
2022/06/14 09:29:25;;;;;;;6.57;2.80;;;20.90;64.30;;;;;;5077607;28;20024;-67
2022/06/14 09:31:53;;;;;;;5.70;2.95;;;20.90;64.90;;;;;;5079333;28;20067;-68
2022/06/14 09:34:46;;;;;;;5.85;2.60;;;21.10;64.00;;;;;;5081635;28;20025;-67
2022/06/14 09:37:33;;;;;;;4.90;2.53;;;21.20;63.10;;;;;;5081225;28;20085;-67
2022/06/14 09:40:12;;;;;;;7.45;2.50;;;21.30;64.20;;;;;;5081171;28;20034;-67
2022/06/14 09:42:52;;;;;;;4.63;2.67;;;21.50;62.40;;;;;;5081283;28;20039;-68
2022/06/14 09:45:26;;;;;;;7.95;2.80;;;21.70;62.50;;;;;;5081239;28;20392;-70
2022/06/14 09:47:55;;;;;;;10.05;3.45;;;21.80;61.60;;;;;;5081181;28;20025;-68
2022/06/14 09:50:45;;;;;;;5.70;2.72;;;21.90;62.40;;;;;;5080917;28;20447;-67
2022/06/14 09:53:33;;;;;;;5.95;2.72;;;22.10;62.60;;;;;;5080944;28;20383;-67
2022/06/14 09:56:04;;;;;;;5.93;2.35;;;22.50;61.80;;;;;;5080843;28;20024;-68
2022/06/14 09:59:01;;;;;;;8.13;2.75;;;22.70;60.00;;;;;;5080938;28;20435;-68
2022/06/14 10:01:45;;;;;;;6.55;3.03;;;22.90;55.50;;;;;;5080587;28;20131;-68
2022/06/14 10:04:57;;;;;;;7.05;3.33;;;23.20;60.80;;;;;;5080893;28;20052;-68
2022/06/14 10:07:33;;;;;;;7.70;2.88;;;23.60;61.90;;;;;;5080123;28;20027;-68
2022/06/14 10:10:12;;;;;;;7.03;3.00;;;24.00;60.50;;;;;;5080559;28;20107;-68
2022/06/14 10:12:58;;;;;;;9.13;3.03;;;24.30;57.40;;;;;;5079526;28;20031;-68
2022/06/14 10:15:39;;;;;;;6.32;3.03;;;24.70;56.30;;;;;;5080588;28;20025;-68
2022/06/14 10:18:35;;;;;;;7.47;2.55;;;25.10;58.90;;;;;;5080627;28;20021;-73
2022/06/14 10:21:24;;;;;;;8.00;3.13;;;25.50;57.40;;;;;;5080515;28;20028;-70
2022/06/14 10:24:15;;;;;;;6.93;2.80;;;26.00;56.60;;;;;;5080489;28;20370;-69
2022/06/14 10:29:37;;;;;;;6.07;3.05;;;26.60;51.10;;;;;;5080344;28;20079;-70
2022/06/14 10:32:09;;;;;;;7.72;2.90;;;26.90;49.60;;;;;;5080148;28;20025;-70
2022/06/14 10:34:53;;;;;;;7.25;2.90;;;27.30;50.80;;;;;;5079489;28;20024;-71
2022/06/14 10:37:51;;;;;;;6.78;2.88;;;27.80;49.80;;;;;;5079720;28;20035;-67
2022/06/14 10:40:27;;;;;;;6.07;2.55;;;28.10;53.20;;;;;;5079525;28;20028;-67
2022/06/14 10:43:08;;;;;;;6.25;2.55;;;28.50;52.10;;;;;;5079109;28;20021;-68
2022/06/14 10:45:42;;;;;;;5.47;2.90;;;28.90;48.20;;;;;;5079631;28;20048;-68
2022/06/14 10:48:20;;;;;;;5.75;2.55;;;29.20;48.60;;;;;;5079565;28;20028;-67
2022/06/14 10:51:01;;;;;;;10.93;2.60;;;29.40;48.20;;;;;;5079587;28;20035;-68
2022/06/14 10:53:48;;;;;;;7.47;2.70;;;29.80;51.90;;;;;;5080003;28;20052;-69
2022/06/14 10:56:32;;;;;;;8.25;2.80;;;30.10;49.40;;;;;;5079814;28;20035;-65
2022/06/14 10:59:19;;;;;;;6.68;2.85;;;30.40;49.80;;;;;;5079607;28;20028;-65
2022/06/14 11:02:12;;;;;;;7.57;2.63;;;30.70;48.40;;;;;;5079554;28;20068;-64
2022/06/14 11:04:54;;;;;;;7.03;2.70;;;31.10;48.80;;;;;;5079902;28;20035;-63
2022/06/14 11:07:48;;;;;;;5.38;2.28;;;31.40;45.10;;;;;;5079711;28;20051;-67
2022/06/14 11:10:38;;;;;;;5.03;2.78;;;31.50;39.70;;;;;;5079627;28;20040;-63
2022/06/14 11:13:35;;;;;;;7.80;2.80;;;31.80;42.90;;;;;;5079294;28;20029;-63
2022/06/14 11:16:31;;;;;;;5.95;2.38;;;32.10;43.70;;;;;;5079340;28;20024;-63
2022/06/14 11:19:32;;;;;;;6.20;2.72;;;32.30;46.50;;;;;;5077277;28;20154;-63
2022/06/14 11:22:07;;;;;;;7.45;2.72;;;32.50;41.00;;;;;;5079194;28;20028;-63
2022/06/14 11:24:37;;;;;;;6.53;2.50;;;32.90;37.10;;;;;;5079280;28;20388;-63
2022/06/14 11:27:18;;;;;;;7.38;2.90;;;33.10;38.10;;;;;;5079064;28;20017;-63
2022/06/14 11:30:02;;;;;;;7.38;2.50;;;33.00;35.30;;;;;;5079274;28;20450;-63
2022/06/14 11:32:34;;;;;;;7.15;2.50;;;33.30;41.30;;;;;;5079201;28;20387;-62
2022/06/14 11:35:38;;;;;;;5.63;2.53;;;33.60;38.90;;;;;;5079229;28;20020;-63
2022/06/14 11:38:32;;;;;;;6.30;2.60;;;34.00;32.50;;;;;;5077489;28;20403;-63
2022/06/14 11:41:04;;;;;;;5.57;2.40;;;34.10;40.30;;;;;;5079268;28;20107;-63
2022/06/14 11:43:59;;;;;;;4.28;2.65;;;33.70;33.80;;;;;;5078773;28;20036;-63
2022/06/14 11:46:40;;;;;;;6.00;2.70;;;33.70;40.00;;;;;;5079175;28;20009;-63
2022/06/14 11:49:27;;;;;;;6.65;2.50;;;33.30;37.40;;;;;;5078736;28;20465;-62
2022/06/14 11:52:06;;;;;;;6.05;2.50;;;33.00;39.50;;;;;;5078781;28;20353;-69
2022/06/14 11:55:11;;;;;;;6.93;2.50;;;32.80;33.60;;;;;;5077797;28;20056;-63
2022/06/14 11:57:48;;;;;;;6.53;2.50;;;32.70;33.40;;;;;;5056373;28;20507;-63
2022/06/14 12:00:23;;;;;;;7.38;2.78;;;32.50;37.00;;;;;;5076203;28;20047;-63
2022/06/14 12:03:25;;;;;;;7.82;2.83;;;32.80;37.30;;;;;;5078391;28;20082;-63
2022/06/14 12:06:07;;;;;;;5.43;2.50;;;32.80;34.10;;;;;;5078507;28;20073;-63
2022/06/14 12:08:52;;;;;;;7.07;2.70;;;32.90;36.40;;;;;;5078077;28;20025;-63
2022/06/14 12:11:30;;;;;;;5.35;2.45;;;32.60;34.90;;;;;;5078423;28;20029;-63
2022/06/14 12:14:23;;;;;;;6.43;2.70;;;32.80;36.70;;;;;;5078356;28;20452;-65
2022/06/14 12:17:01;;;;;;;7.03;2.60;;;33.10;37.50;;;;;;5077918;28;20029;-65
2022/06/14 12:19:32;;;;;;;7.20;2.60;;;33.00;36.80;;;;;;5078580;28;20067;-63
2022/06/14 12:22:00;;;;;;;7.32;2.88;;;33.00;36.20;;;;;;5078235;28;20032;-63
2022/06/14 12:27:19;;;;;;;5.55;2.88;;;32.90;32.00;;;;;;5077954;28;20035;-63
2022/06/14 12:29:50;;;;;;;5.22;2.30;;;33.00;36.10;;;;;;5077665;28;20016;-63
2022/06/14 12:32:48;;;;;;;5.40;2.80;;;32.90;34.60;;;;;;5078865;28;20530;-63
2022/06/14 12:35:23;;;;;;;5.15;2.50;;;32.90;34.10;;;;;;5096502;28;20110;-63
2022/06/14 12:37:55;;;;;;;6.90;3.10;;;32.70;32.90;;;;;;5096880;28;20108;-63
2022/06/14 12:40:29;;;;;;;5.03;2.70;;;32.50;33.80;;;;;;5096637;28;20060;-62
2022/06/14 12:43:05;;;;;;;6.75;2.60;;;32.60;32.20;;;;;;5097141;28;20020;-62
2022/06/14 12:45:45;;;;;;;5.47;2.28;;;32.90;36.00;;;;;;5097412;28;20020;-62
2022/06/14 12:48:38;;;;;;;6.30;2.88;;;33.30;34.90;;;;;;5097794;28;20464;-62
2022/06/14 12:51:41;;;;;;;5.72;2.40;;;32.90;32.10;;;;;;5097679;28;20041;-62
2022/06/14 12:54:49;;;;;;;6.75;2.70;;;33.10;33.80;;;;;;5092522;28;20043;-62
2022/06/14 12:57:38;;;;;;;6.13;2.58;;;33.10;32.60;;;;;;5097127;28;20416;-63
2022/06/14 13:00:20;;;;;;;6.70;2.78;;;32.90;33.30;;;;;;5095305;28;20020;-69
2022/06/14 13:02:53;;;;;;;5.28;2.85;;;32.50;32.50;;;;;;5095974;28;20032;-63
2022/06/14 13:05:25;;;;;;;6.47;2.70;;;32.80;32.70;;;;;;5101820;28;20024;-62
2022/06/14 13:08:05;;;;;;;5.00;2.38;;;32.90;33.00;;;;;;5104227;28;20028;-63
2022/06/14 13:10:50;;;;;;;8.05;2.97;;;32.70;33.50;;;;;;5103941;28;20021;-65
2022/06/14 13:13:46;;;;;;;5.35;2.50;;;32.70;34.10;;;;;;5104171;28;20032;-65
2022/06/14 13:16:14;;;;;;;5.90;2.60;;;32.30;34.90;;;;;;5104667;28;20055;-68
2022/06/14 13:18:59;;;;;;;6.75;2.40;;;31.90;32.40;;;;;;5104499;28;20036;-66
2022/06/14 13:21:31;;;;;;;6.30;2.50;;;31.90;35.30;;;;;;5104140;28;20106;-65
2022/06/14 13:24:20;;;;;;;6.45;2.50;;;31.70;33.90;;;;;;5103970;28;20028;-66
2022/06/14 13:27:23;;;;;;;5.47;2.70;;;31.70;33.70;;;;;;5103492;28;20036;-66
2022/06/14 13:29:57;;;;;;;6.80;2.60;;;31.50;32.90;;;;;;5104075;28;20024;-67
2022/06/14 13:32:45;;;;;;;4.57;2.50;;;31.40;34.80;;;;;;5104115;28;20286;-65
2022/06/14 13:35:41;;;;;;;4.22;2.58;;;31.40;34.90;;;;;;5104318;28;20024;-65
2022/06/14 13:38:10;;;;;;;5.65;2.75;;;31.10;33.70;;;;;;5103993;28;20089;-67
2022/06/14 13:40:39;;;;;;;6.57;2.83;;;30.90;33.70;;;;;;5104161;28;20471;-70
2022/06/14 13:43:21;;;;;;;6.78;2.70;;;30.70;34.40;;;;;;5104300;28;20032;-66
2022/06/14 13:46:11;;;;;;;5.93;2.95;;;30.70;34.30;;;;;;5104072;28;20091;-66
2022/06/14 13:48:39;;;;;;;4.90;2.33;;;30.50;35.00;;;;;;5103958;28;20039;-68
2022/06/14 13:51:15;;;;;;;4.90;2.25;;;30.70;35.50;;;;;;5104015;28;20024;-66
2022/06/14 13:53:54;;;;;;;6.30;2.65;;;30.80;34.70;;;;;;5103912;28;20027;-66
2022/06/14 13:56:24;;;;;;;6.28;2.70;;;30.70;35.50;;;;;;5103823;28;20078;-67
2022/06/14 13:59:10;;;;;;;5.65;2.95;;;30.50;34.90;;;;;;5104044;28;20108;-65
2022/06/14 14:01:42;;;;;;;6.03;2.78;;;30.30;33.90;;;;;;5103691;28;20027;-68